This is the latest recevied weather packets stored in our database for station/object PU2ONU-13. If no packets are shown the sender has not sent any weather packets the latest 10 day(s).
| Time | Temp. | Humidity | Pressure | Rain* | Wind** | Luminosity | Snow |
|---|---|---|---|---|---|---|---|
| 1777959613 | 27.78° C | 44% | 1020 hPa | - | - | - | - |
| 1777958414 | 27.78° C | 45% | 1021 hPa | - | - | - | - |
| 1777957212 | 27.22° C | 46% | 1020 hPa | - | - | - | - |
| 1777956013 | 27.78° C | 45% | 1020 hPa | - | - | - | - |
| 1777954812 | 28.33° C | 43% | 1021 hPa | - | - | - | - |
| 1777953613 | 28.33° C | 44% | 1020 hPa | - | - | - | - |
| 1777942813 | 30° C | 42% | 1020 hPa | - | - | - | - |
| 1777909214 | 28.89° C | 41% | 1018 hPa | - | - | - | - |
| 1777905614 | 28.33° C | 41% | 1019 hPa | - | - | - | - |
| 1777900813 | 27.22° C | 43% | 1022 hPa | - | - | - | - |
| 1777897213 | 27.22° C | 42% | 1022 hPa | - | - | - | - |
| 1777896013 | 26.67° C | 42% | 1021 hPa | - | - | - | - |
| 1777894813 | 28.33° C | 39% | 1021 hPa | - | - | - | - |
| 1777893613 | 27.22° C | 40% | 1021 hPa | - | - | - | - |
| 1777890013 | 25.56° C | 42% | 1021 hPa | - | - | - | - |
| 1777887612 | 25° C | 44% | 1020 hPa | - | - | - | - |
| 1777886412 | 25.56° C | 43% | 1020 hPa | - | - | - | - |
| 1777885213 | 25.56° C | 44% | 1019 hPa | - | - | - | - |
| 1777884013 | 25.56° C | 44% | 1019 hPa | - | - | - | - |
| 1777882813 | 25.56° C | 43% | 1019 hPa | - | - | - | - |
| 1777880413 | 25° C | 44% | 1019 hPa | - | - | - | - |
| 1777879213 | 25.56° C | 42% | 1019 hPa | - | - | - | - |
| 1777878012 | 26.11° C | 42% | 1019 hPa | - | - | - | - |
| 1777876813 | 26.67° C | 41% | 1019 hPa | - | - | - | - |
| 1777875616 | 25.56° C | 42% | 1020 hPa | - | - | - | - |
* Rain since midnight (hover to see other rain measurements)
** Current wind speed in m/s (hover to see current wind gust speed)